This is the latest recevied weather packets stored in our database for station/object KC5EZZ-2. If no packets are shown the sender has not sent any weather packets the latest 10 day(s).
| Time | Temp. | Humidity | Pressure | Rain* | Wind** | Luminosity | Snow |
|---|---|---|---|---|---|---|---|
| 1787448943 | 36.11° C | - | - | 0 mm | 2.68 m/s, 142° | - | - |
| 1787448640 | 36.67° C | - | - | 0 mm | 2.24 m/s, 135° | - | - |
| 1787448340 | 36.67° C | - | - | 0 mm | 1.34 m/s, 146° | - | - |
| 1787448041 | 37.22° C | - | - | 0 mm | 1.79 m/s, 142° | - | - |
| 1787447738 | 37.78° C | - | - | 0 mm | 1.34 m/s, 145° | - | - |
| 1787447439 | 37.78° C | - | - | 0 mm | 2.24 m/s, 132° | - | - |
| 1787447139 | 37.78° C | - | - | 0 mm | 1.79 m/s, 136° | - | - |
| 1787446837 | 37.78° C | - | - | 0 mm | 2.68 m/s, 132° | - | - |
| 1787446537 | 37.78° C | - | - | 0 mm | 2.24 m/s, 134° | - | - |
| 1787446237 | 38.33° C | - | - | 0 mm | 1.79 m/s, 149° | - | - |
| 1787445633 | 38.33° C | - | - | 0 mm | 3.13 m/s, 101° | - | - |
| 1787445333 | 38.33° C | - | - | 0 mm | 3.58 m/s, 98° | - | - |
| 1787445031 | 38.33° C | - | - | 0 mm | 1.79 m/s, 110° | - | - |
| 1787444731 | 38.33° C | - | - | 0 mm | 2.24 m/s, 124° | - | - |
| 1787444431 | 38.89° C | - | - | 0 mm | 2.24 m/s, 110° | - | - |
| 1787444128 | 38.89° C | - | - | 0 mm | 1.79 m/s, 115° | - | - |
| 1787443828 | 38.89° C | - | - | 0 mm | 3.13 m/s, 117° | - | - |
| 1787443528 | 38.89° C | - | - | 0 mm | 2.24 m/s, 111° | - | - |
| 1787443226 | 39.44° C | - | - | 0 mm | 3.58 m/s, 86° | - | - |
| 1787442926 | 39.44° C | - | - | 0 mm | 2.24 m/s, 114° | - | - |
| 1787442626 | 39.44° C | - | - | 0 mm | 2.68 m/s, 87° | - | - |
| 1787442323 | 39.44° C | - | - | 0 mm | 3.58 m/s, 104° | - | - |
| 1787442023 | 39.44° C | - | - | 0 mm | 3.58 m/s, 79° | - | - |
| 1787441723 | 39.44° C | - | - | 0 mm | 3.13 m/s, 97° | - | - |
| 1787441420 | 39.44° C | - | - | 0 mm | 4.02 m/s, 89° | - | - |
* Rain latest hour (hover to see other rain measurements)
** Current wind speed in m/s (hover to see current wind gust speed)